createdAt,value
2023-05-24T00:00:00.380Z,99429.50
2023-05-24T00:02:28.393Z,99427.78
2023-05-24T00:04:55.734Z,99426.03
2023-05-24T00:07:23.004Z,99433.09
2023-05-24T00:09:50.137Z,99415.63
2023-05-24T00:12:17.295Z,99414.53
2023-05-24T00:14:44.483Z,99419.00
2023-05-24T00:17:12.945Z,99392.56
2023-05-24T00:19:40.369Z,99411.69
2023-05-24T00:22:07.606Z,99416.84
2023-05-24T00:24:34.860Z,99417.66
2023-05-24T00:27:02.100Z,99406.19
2023-05-24T00:29:31.444Z,99408.56
2023-05-24T00:32:00.799Z,99400.84
2023-05-24T00:34:28.078Z,99404.19
2023-05-24T00:36:55.219Z,99404.09
2023-05-24T00:39:22.404Z,99400.53
2023-05-24T00:41:50.024Z,99397.03
2023-05-24T00:44:17.166Z,99392.63
2023-05-24T00:46:44.628Z,99393.56
2023-05-24T00:49:12.072Z,99381.34
2023-05-24T00:51:39.401Z,99387.34
2023-05-24T00:54:07.060Z,99390.94
2023-05-24T00:56:34.281Z,99386.59
2023-05-24T00:59:02.236Z,99380.53
2023-05-24T01:01:31.354Z,99381.47
2023-05-24T01:03:59.904Z,99379.69
2023-05-24T01:06:28.585Z,99365.59
2023-05-24T01:09:16.537Z,99372.38
2023-05-24T01:11:58.494Z,99348.94
2023-05-24T01:14:53.461Z,99355.78
2023-05-24T01:17:31.498Z,99372.38
2023-05-24T01:20:07.045Z,99372.31
2023-05-24T01:22:49.074Z,99378.38
2023-05-24T01:25:16.246Z,99382.84
2023-05-24T01:27:44.533Z,99381.94
2023-05-24T01:30:12.812Z,99375.72
2023-05-24T01:32:40.621Z,99371.34
2023-05-24T01:35:08.109Z,99375.69
2023-05-24T01:37:36.319Z,99366.75
2023-05-24T01:40:04.785Z,99354.50
2023-05-24T01:42:46.678Z,99373.75
2023-05-24T01:45:16.879Z,99363.13
2023-05-24T01:47:43.903Z,99359.66
2023-05-24T01:50:45.732Z,99332.63
2023-05-24T01:53:17.864Z,99348.06
2023-05-24T01:55:48.299Z,99357.72
2023-05-24T01:58:17.666Z,99349.84
2023-05-24T02:00:45.816Z,99341.91
2023-05-24T02:03:15.089Z,99362.09
2023-05-24T02:05:42.401Z,99353.19
2023-05-24T02:08:09.655Z,99354.16
2023-05-24T02:10:39.768Z,99356.78
2023-05-24T02:13:08.069Z,99318.28
2023-05-24T02:15:36.199Z,99343.59
2023-05-24T02:18:04.367Z,99360.34
2023-05-24T02:20:51.514Z,99355.03
2023-05-24T02:23:18.486Z,99349.72
2023-05-24T02:25:45.934Z,99349.63
2023-05-24T02:28:13.168Z,99351.31
2023-05-24T02:30:40.450Z,99350.41
2023-05-24T02:33:07.823Z,99333.69
2023-05-24T02:35:35.106Z,99353.88
2023-05-24T02:38:03.877Z,99334.53
2023-05-24T02:40:30.893Z,99346.63
2023-05-24T02:42:58.194Z,99335.22
2023-05-24T02:45:25.535Z,99342.13
2023-05-24T02:47:52.779Z,99335.97
2023-05-24T02:50:19.955Z,99338.56
2023-05-24T02:52:47.081Z,99323.72
2023-05-24T02:55:14.385Z,99341.97
2023-05-24T02:57:42.358Z,99346.28
2023-05-24T03:00:11.711Z,99347.16
2023-05-24T03:02:43.780Z,99338.31
2023-05-24T03:05:11.104Z,99335.50
2023-05-24T03:07:38.177Z,99336.28
2023-05-24T03:10:06.994Z,99334.44
2023-05-24T03:12:34.058Z,99333.44
2023-05-24T03:15:01.243Z,99315.72
2023-05-24T03:17:33.563Z,99319.13
2023-05-24T03:20:01.582Z,99324.28
2023-05-24T03:22:32.582Z,99315.53
2023-05-24T03:24:59.628Z,99314.34
2023-05-24T03:27:26.786Z,99317.88
2023-05-24T03:29:54.819Z,99302.03
2023-05-24T03:32:26.770Z,99301.22
2023-05-24T03:34:54.934Z,99309.91
2023-05-24T03:37:22.535Z,99306.31
2023-05-24T03:39:50.137Z,99296.00
2023-05-24T03:42:43.263Z,99299.66
2023-05-24T03:45:11.663Z,99307.56
2023-05-24T03:47:38.988Z,99314.25
2023-05-24T03:50:06.848Z,99299.06
2023-05-24T03:52:34.930Z,99311.81
2023-05-24T03:55:04.154Z,99303.66
2023-05-24T03:57:31.533Z,99298.78
2023-05-24T04:00:00.406Z,99287.03
2023-05-24T04:02:33.127Z,99309.38
2023-05-24T04:05:10.458Z,99296.16
2023-05-24T04:07:38.838Z,99309.28
2023-05-24T04:10:08.841Z,99308.63
2023-05-24T04:12:35.938Z,99304.72
2023-05-24T04:15:03.097Z,99295.56
2023-05-24T04:17:35.129Z,99302.63
2023-05-24T04:20:02.345Z,99294.28
2023-05-24T04:22:30.807Z,99295.47
2023-05-24T04:24:58.212Z,99291.31
2023-05-24T04:27:26.240Z,99310.53
2023-05-24T04:29:53.524Z,99301.75
2023-05-24T04:32:20.684Z,99293.34
2023-05-24T04:34:47.812Z,99300.06
2023-05-24T04:37:17.368Z,99307.06
2023-05-24T04:39:46.458Z,99302.81
2023-05-24T04:42:14.134Z,99301.25
2023-05-24T04:44:41.616Z,99300.31
2023-05-24T04:47:09.964Z,99285.59
2023-05-24T04:49:37.818Z,99298.56
2023-05-24T04:52:05.347Z,99300.59
2023-05-24T04:54:33.253Z,99295.22
2023-05-24T04:57:00.363Z,99290.88
2023-05-24T04:59:27.635Z,99302.44
2023-05-24T05:01:54.854Z,99332.22
2023-05-24T05:04:21.964Z,99334.84
2023-05-24T05:06:49.280Z,99341.38
2023-05-24T05:09:16.469Z,99322.56
2023-05-24T05:11:43.615Z,99324.00
2023-05-24T05:14:10.800Z,99342.13
2023-05-24T05:16:39.086Z,99318.69
2023-05-24T05:19:06.594Z,99344.72
2023-05-24T05:21:34.684Z,99345.97
2023-05-24T05:24:01.848Z,99336.84
2023-05-24T05:26:29.931Z,99347.28
2023-05-24T05:29:00.227Z,99345.66
2023-05-24T05:31:27.464Z,99342.03
2023-05-24T05:33:54.602Z,99336.53
2023-05-24T05:36:21.691Z,99325.72
2023-05-24T05:38:48.691Z,99324.47
2023-05-24T05:41:15.884Z,99328.00
2023-05-24T05:43:42.973Z,99330.91
2023-05-24T05:46:11.455Z,99329.44
2023-05-24T05:48:38.618Z,99328.28
2023-05-24T05:51:05.834Z,99327.19
2023-05-24T05:53:35.632Z,99317.81
2023-05-24T05:56:02.715Z,99311.41
2023-05-24T05:58:29.904Z,99327.81
2023-05-24T06:00:57.037Z,99327.41
2023-05-24T06:03:24.199Z,99330.72
2023-05-24T06:05:51.424Z,99325.53
2023-05-24T06:08:18.482Z,99315.50
2023-05-24T06:10:45.654Z,99301.69
2023-05-24T06:13:13.861Z,99300.44
2023-05-24T06:15:41.394Z,99306.19
2023-05-24T06:18:08.678Z,99282.69
2023-05-24T06:20:37.109Z,99299.25
2023-05-24T06:23:04.475Z,99301.19
2023-05-24T06:25:33.129Z,99321.06
2023-05-24T06:28:00.155Z,99314.59
2023-05-24T06:30:27.489Z,99304.19
2023-05-24T06:32:54.653Z,99313.19
2023-05-24T06:35:22.617Z,99292.25
2023-05-24T06:37:49.899Z,99315.41
2023-05-24T06:40:16.952Z,99311.97
2023-05-24T06:42:44.161Z,99306.00
2023-05-24T06:45:11.735Z,99310.69
2023-05-24T06:47:38.916Z,99309.16
2023-05-24T06:50:07.232Z,99298.06
2023-05-24T06:52:34.424Z,99304.03
2023-05-24T06:55:01.504Z,99316.13
2023-05-24T06:57:31.714Z,99312.25
2023-05-24T06:59:58.804Z,99278.34
2023-05-24T07:02:27.480Z,99304.03
2023-05-24T07:04:55.033Z,99312.09
2023-05-24T07:07:22.148Z,99294.91
2023-05-24T07:09:49.321Z,99310.84
2023-05-24T07:12:16.756Z,99290.41
2023-05-24T07:14:43.928Z,99305.06
2023-05-24T07:17:11.216Z,99300.69
2023-05-24T07:19:38.385Z,99304.41
2023-05-24T07:22:05.702Z,99311.84
2023-05-24T07:24:32.958Z,99317.53
2023-05-24T07:27:00.172Z,99313.56
2023-05-24T07:29:27.801Z,99320.59
2023-05-24T07:31:56.603Z,99311.50
2023-05-24T07:34:27.642Z,99298.59
2023-05-24T07:36:54.913Z,99312.91
2023-05-24T07:39:22.062Z,99304.22
2023-05-24T07:41:49.274Z,99309.78
2023-05-24T07:44:16.314Z,99324.78
2023-05-24T07:46:43.430Z,99320.78
2023-05-24T07:49:11.276Z,99313.31
2023-05-24T07:54:23.829Z,99327.66
2023-05-24T07:56:50.917Z,99335.78
2023-05-24T07:59:18.266Z,99329.56
2023-05-24T08:01:45.631Z,99334.13
2023-05-24T08:04:12.726Z,99333.03
2023-05-24T08:06:39.749Z,99323.25
2023-05-24T08:09:08.582Z,99340.09
2023-05-24T08:11:35.789Z,99339.34
2023-05-24T08:14:03.814Z,99338.06
2023-05-24T08:16:32.014Z,99344.22
2023-05-24T08:18:59.592Z,99337.13
2023-05-24T08:21:27.882Z,99345.66
2023-05-24T08:23:55.323Z,99329.56
2023-05-24T08:26:22.706Z,99338.03
2023-05-24T08:28:49.906Z,99332.03
2023-05-24T08:31:17.139Z,99331.38
2023-05-24T08:33:44.805Z,99320.00
2023-05-24T08:36:12.300Z,99331.09
2023-05-24T08:38:39.463Z,99313.19
2023-05-24T08:41:09.546Z,99318.97
2023-05-24T08:43:37.214Z,99304.31
2023-05-24T08:46:11.532Z,99334.59
2023-05-24T08:48:45.771Z,99331.94
2023-05-24T08:51:16.964Z,99324.38
2023-05-24T08:53:48.957Z,99314.34
2023-05-24T08:56:17.935Z,99316.16
2023-05-24T08:58:47.357Z,99315.13
2023-05-24T09:01:17.197Z,99325.25
2023-05-24T09:03:47.502Z,99325.19
2023-05-24T09:06:19.510Z,99332.75
2023-05-24T09:08:47.233Z,99316.75
2023-05-24T09:11:16.570Z,99312.78
2023-05-24T09:13:46.111Z,99329.81
2023-05-24T09:16:13.583Z,99325.56
2023-05-24T09:18:42.924Z,99321.97
2023-05-24T09:21:13.512Z,99315.03
2023-05-24T09:23:41.369Z,99327.38
2023-05-24T09:26:09.924Z,99321.63
2023-05-24T09:28:38.639Z,99322.59
2023-05-24T09:31:13.904Z,99312.59
2023-05-24T09:33:41.164Z,99326.66
2023-05-24T09:36:12.480Z,99322.81
2023-05-24T09:38:47.429Z,99239.19
2023-05-24T09:41:40.746Z,99288.38
2023-05-24T09:44:15.518Z,99324.50
2023-05-24T09:46:43.104Z,99324.75
2023-05-24T09:49:10.485Z,99323.03
2023-05-24T09:51:39.297Z,99319.47
2023-05-24T09:54:08.362Z,99266.38
2023-05-24T09:56:36.103Z,99329.34
2023-05-24T09:59:10.654Z,99273.91
2023-05-24T10:01:38.287Z,99324.06
2023-05-24T10:04:10.258Z,99294.50
2023-05-24T10:06:39.313Z,99321.69
2023-05-24T10:09:07.971Z,99257.50
2023-05-24T10:11:40.111Z,99334.44
2023-05-24T10:14:10.148Z,99332.16
2023-05-24T10:16:40.383Z,99327.41
2023-05-24T10:19:07.897Z,99308.53
2023-05-24T10:21:40.269Z,99342.16
2023-05-24T10:24:11.637Z,99286.22
2023-05-24T10:26:51.342Z,99345.41
2023-05-24T10:29:50.527Z,99212.03
2023-05-24T10:32:25.479Z,99346.75
2023-05-24T10:34:54.419Z,99351.69
2023-05-24T10:37:23.184Z,99307.09
2023-05-24T10:39:50.854Z,99305.66
2023-05-24T10:42:31.902Z,99307.56
2023-05-24T10:45:41.502Z,99301.03
2023-05-24T10:48:17.247Z,99351.88
2023-05-24T10:50:50.523Z,99341.47
2023-05-24T10:53:39.141Z,99318.47
2023-05-24T10:56:09.823Z,99250.47
2023-05-24T10:58:55.761Z,99364.34
2023-05-24T11:01:34.217Z,99313.63
2023-05-24T11:04:19.237Z,99369.03
2023-05-24T11:06:48.560Z,99342.84
2023-05-24T11:09:17.699Z,99363.44
2023-05-24T11:11:48.045Z,99278.22
2023-05-24T11:14:19.929Z,99372.69
2023-05-24T11:16:49.766Z,99352.22
2023-05-24T11:19:20.688Z,99373.88
2023-05-24T11:22:00.309Z,99377.28
2023-05-24T11:24:28.416Z,99357.34
2023-05-24T11:26:57.539Z,99361.00
2023-05-24T11:29:25.449Z,99352.09
2023-05-24T11:31:55.230Z,99391.69
2023-05-24T11:34:22.602Z,99388.63
2023-05-24T11:36:52.405Z,99388.47
2023-05-24T11:39:19.864Z,99389.16
2023-05-24T11:41:47.929Z,99386.56
2023-05-24T11:44:19.763Z,99342.75
2023-05-24T11:46:47.462Z,99357.97
2023-05-24T11:49:17.114Z,99311.50
2023-05-24T11:51:44.782Z,99382.69
2023-05-24T11:54:12.387Z,99384.25
2023-05-24T11:56:40.207Z,99385.03
2023-05-24T11:59:14.736Z,99387.28
2023-05-24T12:01:46.575Z,99357.75
2023-05-24T12:04:15.588Z,99325.72
2023-05-24T12:06:44.737Z,99289.16
2023-05-24T12:09:15.949Z,99359.81
2023-05-24T15:47:40.707Z,99360.63
2023-05-24T15:50:09.157Z,99359.84
2023-05-24T15:52:37.375Z,99349.44
2023-05-24T15:55:05.253Z,99350.09
2023-05-24T15:57:36.756Z,99344.19
2023-05-24T16:00:07.447Z,99255.03
2023-05-24T16:06:01.098Z,99285.66
2023-05-24T16:11:52.190Z,99380.59
2023-05-24T16:17:44.187Z,99255.50
2023-05-24T16:20:35.873Z,99255.13
2023-05-24T16:23:20.325Z,99320.75
2023-05-24T16:25:49.609Z,99321.63
2023-05-24T16:28:16.906Z,99337.25
2023-05-24T16:30:58.609Z,99308.94
2023-05-24T16:33:56.671Z,99269.72
2023-05-24T16:36:46.068Z,99386.66
2023-05-24T16:39:47.752Z,99391.25
2023-05-24T16:42:58.803Z,99365.41
2023-05-24T16:49:05.282Z,99290.50
2023-05-24T17:08:50.507Z,99281.94
2023-05-24T17:14:46.854Z,99416.38
2023-05-24T17:21:06.924Z,99429.72
2023-05-24T17:24:31.618Z,99408.22
2023-05-24T17:27:40.408Z,99356.28
2023-05-24T17:33:10.651Z,99327.00
2023-05-24T17:39:00.715Z,99317.63
2023-05-24T17:41:47.072Z,99378.94
2023-05-24T17:44:16.965Z,99441.59
2023-05-24T17:46:44.725Z,99444.59
2023-05-24T17:49:17.232Z,99349.28
2023-05-24T17:52:01.999Z,99313.09
2023-05-24T17:55:12.098Z,99452.06
2023-05-24T17:57:44.822Z,99408.41
2023-05-24T18:00:36.756Z,99322.50
2023-05-24T18:03:34.377Z,99410.84
2023-05-24T18:09:28.754Z,99422.22
2023-05-24T18:15:21.492Z,99374.97
2023-05-24T18:17:49.108Z,99421.56
2023-05-24T18:20:16.807Z,99347.63
2023-05-24T18:22:44.435Z,99460.06
2023-05-24T18:25:11.931Z,99471.03
2023-05-24T18:27:39.277Z,99393.16
2023-05-24T18:30:08.140Z,99400.75
2023-05-24T18:32:36.953Z,99458.09
2023-05-24T18:35:11.868Z,99449.81
2023-05-24T18:37:45.238Z,99427.91
2023-05-24T18:40:24.673Z,99462.03
2023-05-24T18:42:55.362Z,99410.03
2023-05-24T18:45:23.205Z,99361.44
2023-05-24T18:47:51.035Z,99367.34
2023-05-24T18:50:23.257Z,99441.50
2023-05-24T18:52:50.819Z,99445.44
2023-05-24T18:55:18.069Z,99482.00
2023-05-24T18:57:45.183Z,99476.81
2023-05-24T19:00:13.020Z,99472.38
2023-05-24T19:02:40.581Z,99471.44
2023-05-24T19:05:08.566Z,99467.03
2023-05-24T19:07:36.477Z,99469.53
2023-05-24T19:10:04.557Z,99462.09
2023-05-24T19:12:33.093Z,99454.50
2023-05-24T19:15:02.800Z,99453.09
2023-05-24T19:17:34.903Z,99440.59
2023-05-24T19:20:02.869Z,99448.25
2023-05-24T19:22:33.905Z,99418.38
2023-05-24T19:25:01.434Z,99445.97
2023-05-24T19:27:31.722Z,99441.50
2023-05-24T19:30:00.313Z,99440.63
2023-05-24T19:32:28.074Z,99442.03
2023-05-24T19:34:55.414Z,99436.81
2023-05-24T19:37:22.827Z,99450.16
2023-05-24T19:39:51.485Z,99443.75
2023-05-24T19:42:18.803Z,99445.13
2023-05-24T19:44:46.020Z,99438.91
2023-05-24T19:47:13.268Z,99422.78
2023-05-24T19:49:40.344Z,99437.31
2023-05-24T19:52:07.428Z,99443.66
2023-05-24T19:54:34.581Z,99448.31
2023-05-24T19:57:05.959Z,99435.78
2023-05-24T19:59:33.090Z,99445.50
2023-05-24T20:02:00.272Z,99449.94
2023-05-24T20:04:27.526Z,99442.84
2023-05-24T20:06:54.776Z,99452.53
2023-05-24T20:09:22.026Z,99449.50
2023-05-24T20:11:49.228Z,99427.72
2023-05-24T20:14:16.420Z,99441.75
2023-05-24T20:16:43.667Z,99436.56
2023-05-24T20:19:11.994Z,99430.03
2023-05-24T20:21:39.224Z,99416.69
2023-05-24T20:24:06.711Z,99456.63
2023-05-24T20:26:35.174Z,99449.41
2023-05-24T20:29:02.409Z,99475.75
2023-05-24T20:31:29.949Z,99458.78
2023-05-24T20:33:57.375Z,99478.53
2023-05-24T20:36:24.870Z,99466.53
2023-05-24T20:38:52.166Z,99453.84
2023-05-24T20:41:19.576Z,99475.94
2023-05-24T20:43:47.170Z,99466.53
2023-05-24T20:46:14.647Z,99469.00
2023-05-24T20:48:43.355Z,99471.88
2023-05-24T20:51:10.667Z,99454.59
2023-05-24T20:53:38.046Z,99461.44
2023-05-24T20:56:05.223Z,99457.09
2023-05-24T20:58:32.476Z,99456.22
2023-05-24T21:00:59.739Z,99450.13
2023-05-24T21:03:27.087Z,99462.69
2023-05-24T21:05:54.238Z,99456.53
2023-05-24T21:08:21.370Z,99468.16
2023-05-24T21:10:48.534Z,99456.19
2023-05-24T21:13:15.689Z,99459.69
2023-05-24T21:15:45.240Z,99451.81
2023-05-24T21:18:13.176Z,99452.63
2023-05-24T21:20:40.637Z,99455.34
2023-05-24T21:23:08.477Z,99443.25
2023-05-24T21:25:36.196Z,99444.19
2023-05-24T21:28:03.399Z,99447.78
2023-05-24T21:30:30.806Z,99440.81
2023-05-24T21:32:58.010Z,99439.13
2023-05-24T21:35:26.213Z,99419.81
2023-05-24T21:37:53.333Z,99419.81
2023-05-24T21:40:20.426Z,99420.19
2023-05-24T21:42:47.460Z,99417.22
2023-05-24T21:45:14.810Z,99412.09
2023-05-24T21:47:42.921Z,99416.72
2023-05-24T21:50:10.386Z,99416.22
2023-05-24T21:52:37.626Z,99413.97
2023-05-24T21:55:05.610Z,99401.94
2023-05-24T21:57:32.883Z,99406.16
2023-05-24T22:00:00.159Z,99409.03
2023-05-24T22:02:27.637Z,99414.59
2023-05-24T22:04:54.948Z,99397.19
2023-05-24T22:07:22.071Z,99420.16
2023-05-24T22:09:49.128Z,99427.22
2023-05-24T22:12:16.541Z,99427.41
2023-05-24T22:14:44.130Z,99420.13
2023-05-24T22:17:12.196Z,99433.47
2023-05-24T22:19:41.479Z,99399.78
2023-05-24T22:22:09.978Z,99433.00
2023-05-24T22:24:37.231Z,99429.53
2023-05-24T22:27:04.968Z,99436.66
2023-05-24T22:29:32.003Z,99435.94
2023-05-24T22:31:59.002Z,99442.28
2023-05-24T22:34:29.607Z,99419.66
2023-05-24T22:36:57.802Z,99436.38
2023-05-24T22:39:25.379Z,99416.31
2023-05-24T22:41:53.241Z,99430.06
2023-05-24T22:44:20.486Z,99433.66
2023-05-24T22:46:49.947Z,99410.00
2023-05-24T22:49:22.060Z,99418.56
2023-05-24T22:51:50.845Z,99437.88
2023-05-24T22:54:18.190Z,99421.78
2023-05-24T22:56:46.371Z,99413.00
2023-05-24T22:59:13.464Z,99406.13
2023-05-24T23:01:40.668Z,99437.13
2023-05-24T23:04:20.714Z,99437.31
2023-05-24T23:06:53.148Z,99434.22
2023-05-24T23:09:35.196Z,99443.22
2023-05-24T23:12:08.087Z,99441.53
2023-05-24T23:14:39.652Z,99440.59
2023-05-24T23:17:10.555Z,99444.19
2023-05-24T23:19:42.608Z,99437.03
2023-05-24T23:22:12.143Z,99429.75
2023-05-24T23:24:42.708Z,99440.31
2023-05-24T23:27:10.711Z,99423.50
2023-05-24T23:29:40.964Z,99418.25
2023-05-24T23:32:08.944Z,99428.81
2023-05-24T23:34:37.342Z,99421.81
2023-05-24T23:37:05.634Z,99417.28
2023-05-24T23:39:32.923Z,99405.97
2023-05-24T23:42:02.263Z,99414.94
2023-05-24T23:44:29.467Z,99409.66
2023-05-24T23:46:57.196Z,99417.69
2023-05-24T23:49:24.738Z,99416.91
2023-05-24T23:51:51.882Z,99425.75
2023-05-24T23:54:21.698Z,99414.38
2023-05-24T23:56:48.949Z,99391.75
2023-05-24T23:59:17.463Z,99409.16
